createdAt,value
2023-05-05T00:01:38.121Z,5.40
2023-05-05T00:07:41.985Z,5.20
2023-05-05T00:13:46.836Z,5.03
2023-05-05T00:19:50.366Z,3.95
2023-05-05T00:25:53.946Z,6.75
2023-05-05T00:31:58.760Z,5.10
2023-05-05T00:38:03.016Z,4.28
2023-05-05T00:44:07.368Z,5.68
2023-05-05T00:50:15.886Z,4.90
2023-05-05T00:56:21.879Z,5.95
2023-05-05T01:02:25.501Z,5.07
2023-05-05T01:08:36.073Z,4.70
2023-05-05T01:14:41.503Z,5.80
2023-05-05T01:20:50.791Z,5.60
2023-05-05T01:27:02.761Z,5.22
2023-05-05T01:33:08.494Z,7.00
2023-05-05T01:39:14.590Z,5.43
2023-05-05T01:45:19.418Z,6.50
2023-05-05T01:51:25.372Z,7.70
2023-05-05T01:57:31.392Z,6.95
2023-05-05T02:03:35.591Z,6.88
2023-05-05T02:09:41.125Z,6.20
2023-05-05T02:15:45.682Z,6.03
2023-05-05T02:21:49.162Z,6.85
2023-05-05T02:27:56.752Z,7.22
2023-05-05T02:34:02.764Z,8.15
2023-05-05T02:40:07.635Z,6.10
2023-05-05T02:46:13.306Z,6.95
2023-05-05T02:52:16.972Z,7.43
2023-05-05T02:58:23.851Z,6.45
2023-05-05T03:04:31.151Z,6.68
2023-05-05T03:10:37.055Z,7.90
2023-05-05T03:16:41.563Z,8.20
2023-05-05T03:22:46.513Z,6.80
2023-05-05T03:28:49.911Z,7.25
2023-05-05T03:34:53.495Z,9.02
2023-05-05T03:40:58.437Z,7.30
2023-05-05T03:47:01.856Z,10.60
2023-05-05T03:53:05.258Z,6.85
2023-05-05T03:59:10.178Z,8.57
2023-05-05T04:05:13.710Z,8.75
2023-05-05T04:11:17.259Z,7.38
2023-05-05T04:17:22.518Z,8.00
2023-05-05T04:23:25.914Z,7.18
2023-05-05T04:29:29.325Z,7.43
2023-05-05T04:35:34.096Z,6.15
2023-05-05T04:41:37.498Z,6.80
2023-05-05T04:47:41.094Z,8.23
2023-05-05T04:53:46.242Z,7.18
2023-05-05T04:59:49.873Z,9.15
2023-05-05T05:05:53.563Z,6.30
2023-05-05T05:12:02.990Z,10.60
2023-05-05T05:18:06.553Z,10.00
2023-05-05T05:24:11.617Z,6.95
2023-05-05T05:30:16.826Z,9.52
2023-05-05T05:36:20.355Z,7.05
2023-05-05T05:42:23.717Z,10.25
2023-05-05T05:48:29.490Z,9.48
2023-05-05T05:54:34.487Z,9.15
2023-05-05T06:00:37.890Z,8.23
2023-05-05T06:06:42.649Z,8.50
2023-05-05T06:12:46.052Z,10.05
2023-05-05T06:18:49.706Z,8.85
2023-05-05T06:24:54.696Z,6.25
2023-05-05T06:30:58.162Z,5.90
2023-05-05T06:37:01.670Z,6.70
2023-05-05T06:43:06.553Z,8.60
2023-05-05T06:49:09.946Z,5.18
2023-05-05T06:55:13.504Z,5.88
2023-05-05T07:01:18.787Z,6.32
2023-05-05T07:07:22.665Z,10.38
2023-05-05T07:13:26.150Z,5.00
2023-05-05T07:19:31.325Z,5.60
2023-05-05T07:25:34.763Z,4.65
2023-05-05T07:31:38.469Z,7.00
2023-05-05T07:37:43.371Z,6.47
2023-05-05T07:43:46.868Z,4.45
2023-05-05T07:49:50.564Z,6.93
2023-05-05T07:55:55.409Z,4.70
2023-05-05T08:01:58.899Z,3.10
2023-05-05T08:08:03.644Z,5.20
2023-05-05T08:14:11.592Z,6.18
2023-05-05T08:20:16.184Z,4.63
2023-05-05T08:26:19.814Z,3.92
2023-05-05T08:32:24.681Z,3.28
2023-05-05T08:38:28.179Z,5.22
2023-05-05T08:44:32.186Z,2.72
2023-05-05T08:50:37.845Z,3.58
2023-05-05T08:56:42.513Z,4.25
2023-05-05T09:02:46.719Z,3.42
2023-05-05T09:08:51.633Z,4.80
2023-05-05T09:14:56.201Z,4.82
2023-05-05T09:21:00.891Z,4.22
2023-05-05T09:27:22.915Z,5.00
2023-05-05T09:33:31.024Z,4.28
2023-05-05T09:39:35.102Z,4.50
2023-05-05T09:45:39.868Z,4.45
2023-05-05T09:51:43.661Z,2.83
2023-05-05T09:57:47.813Z,4.82
2023-05-05T10:03:53.366Z,3.53
2023-05-05T10:09:57.347Z,2.47
2023-05-05T10:16:01.601Z,3.33
2023-05-05T10:22:09.683Z,4.05
2023-05-05T10:28:15.743Z,5.03
2023-05-05T10:34:23.072Z,3.00
2023-05-05T10:40:28.093Z,3.50
2023-05-05T10:46:31.889Z,3.60
2023-05-05T10:52:39.871Z,4.82
2023-05-05T10:58:59.222Z,4.88
2023-05-05T11:05:08.275Z,3.25
2023-05-05T11:11:12.624Z,3.10
2023-05-05T11:17:30.948Z,2.58
2023-05-05T11:23:37.254Z,2.13
2023-05-05T11:29:59.309Z,3.35
2023-05-05T11:36:06.128Z,5.22
2023-05-05T11:42:17.999Z,3.15
2023-05-05T11:48:27.884Z,2.67
2023-05-05T11:54:31.813Z,3.58
2023-05-05T12:00:36.671Z,2.47
2023-05-05T12:06:40.159Z,2.42
2023-05-05T12:12:43.568Z,2.92
2023-05-05T12:18:48.674Z,3.80
2023-05-05T12:24:59.049Z,2.22
2023-05-05T12:31:02.578Z,1.52
2023-05-05T12:37:07.468Z,2.15
2023-05-05T12:43:10.970Z,2.63
2023-05-05T12:49:14.766Z,2.72
2023-05-05T12:55:20.044Z,2.63
2023-05-05T13:01:23.632Z,1.83
2023-05-05T13:07:27.080Z,2.70
2023-05-05T13:13:36.069Z,4.00
2023-05-05T13:19:46.537Z,1.83
2023-05-05T13:25:50.720Z,2.72
2023-05-05T13:31:55.575Z,1.97
2023-05-05T13:37:59.121Z,1.17
2023-05-05T13:44:03.753Z,0.98
2023-05-05T13:50:09.572Z,0.75
2023-05-05T13:56:13.042Z,1.02
2023-05-05T14:02:16.577Z,1.20
2023-05-05T14:08:21.604Z,1.55
2023-05-05T14:14:25.052Z,1.63
2023-05-05T14:20:28.958Z,2.45
2023-05-05T14:26:33.730Z,1.05
2023-05-05T14:32:37.279Z,1.67
2023-05-05T14:38:42.306Z,0.80
2023-05-05T14:44:47.862Z,1.33
2023-05-05T14:50:51.268Z,1.23
2023-05-05T14:56:55.091Z,1.88
2023-05-05T15:03:00.318Z,0.85
2023-05-05T15:09:03.856Z,1.83
2023-05-05T15:15:08.829Z,1.27
2023-05-05T15:21:14.047Z,2.28
2023-05-05T15:27:18.114Z,2.97
2023-05-05T15:33:21.642Z,1.15
2023-05-05T15:39:26.507Z,3.90
2023-05-05T15:45:29.983Z,2.78
2023-05-05T15:51:33.570Z,2.30
2023-05-05T15:57:39.760Z,2.13
2023-05-05T16:03:43.217Z,2.83
2023-05-05T16:09:46.939Z,3.75
2023-05-05T16:15:51.898Z,3.20
2023-05-05T16:21:55.500Z,3.95
2023-05-05T16:28:00.247Z,0.95
2023-05-05T16:34:05.881Z,1.75
2023-05-05T16:40:10.001Z,1.35
2023-05-05T16:46:13.496Z,3.80
2023-05-05T16:52:18.334Z,1.48
2023-05-05T16:58:22.542Z,1.50
2023-05-05T17:04:26.114Z,2.25
2023-05-05T17:10:30.953Z,4.80
2023-05-05T17:16:34.631Z,2.42
2023-05-05T17:22:38.292Z,2.42
2023-05-05T17:28:43.131Z,2.70
2023-05-05T17:34:47.007Z,3.90
2023-05-05T17:40:50.613Z,1.10
2023-05-05T17:46:55.382Z,1.77
2023-05-05T17:52:59.857Z,1.33
2023-05-05T17:59:03.304Z,1.50
2023-05-05T18:05:08.825Z,2.05
2023-05-05T18:11:12.776Z,1.85
2023-05-05T18:17:16.229Z,2.83
2023-05-05T18:23:21.316Z,1.75
2023-05-05T18:29:25.513Z,1.85
2023-05-05T18:35:29.089Z,1.75
2023-05-05T18:41:33.871Z,1.08
2023-05-05T18:47:38.887Z,2.05
2023-05-05T18:53:42.655Z,1.75
2023-05-05T18:59:47.878Z,3.28
2023-05-05T19:05:51.306Z,2.08
2023-05-05T19:11:54.738Z,4.10
2023-05-05T19:17:59.739Z,2.78
2023-05-05T19:24:04.290Z,1.65
2023-05-05T19:30:08.420Z,3.45
2023-05-05T19:36:13.519Z,3.00
2023-05-05T19:42:17.029Z,1.85
2023-05-05T19:48:20.875Z,2.40
2023-05-05T19:54:25.811Z,1.92
2023-05-05T20:00:29.524Z,2.10
2023-05-05T20:06:32.939Z,4.28
2023-05-05T20:12:37.771Z,2.42
2023-05-05T20:18:41.775Z,3.30
2023-05-05T20:24:45.317Z,2.97
2023-05-05T20:30:50.394Z,2.20
2023-05-05T20:36:54.348Z,2.92
2023-05-05T20:42:57.869Z,3.00
2023-05-05T20:49:02.824Z,2.30
2023-05-05T20:55:06.802Z,4.65
2023-05-05T21:01:10.308Z,3.42
2023-05-05T21:07:15.455Z,4.32
2023-05-05T21:13:19.218Z,4.32
2023-05-05T21:19:22.831Z,3.70
2023-05-05T21:25:28.035Z,3.15
2023-05-05T21:31:31.541Z,4.32
2023-05-05T21:37:35.114Z,4.43
2023-05-05T21:43:40.563Z,3.38
2023-05-05T21:49:43.999Z,3.05
2023-05-05T21:55:47.494Z,3.22
2023-05-05T22:01:52.474Z,3.40
2023-05-05T22:07:56.164Z,3.00
2023-05-05T22:13:59.859Z,3.47
2023-05-05T22:20:06.582Z,3.10
2023-05-05T22:26:10.341Z,3.08
2023-05-05T22:32:13.890Z,3.40
2023-05-05T22:38:18.705Z,3.60
2023-05-05T22:44:22.156Z,5.15
2023-05-05T22:50:25.634Z,7.05
2023-05-05T22:56:30.981Z,3.08
2023-05-05T23:02:34.458Z,3.88
2023-05-05T23:08:37.951Z,6.18
2023-05-05T23:14:43.573Z,4.45
2023-05-05T23:20:47.132Z,6.63
2023-05-05T23:26:51.944Z,4.25
2023-05-05T23:32:57.488Z,4.03
2023-05-05T23:39:01.140Z,3.85
2023-05-05T23:45:04.817Z,3.58
2023-05-05T23:51:09.618Z,3.83
2023-05-05T23:57:12.986Z,3.72
